Time;durP1;ratioP1;P1;durP2;ratioP2;P2;SDS_P1;SDS_P2;PMS_P1;PMS_P2;Temp;Humidity;BMP_temperature;BMP_pressure;BME280_temperature;BME280_humidity;BME280_pressure;Samples;Min_cycle;Max_cycle;Signal;HPM_P1;HPM_P2
2023/05/03 00:00:46;;;;;;;;;8.20;7.00;;;;;15.30;31.89;99406.75;5089490;28;8934;-76
2023/05/03 00:03:14;;;;;;;;;7.40;7.00;;;;;15.33;31.81;99415.44;5086805;28;8865;-79
2023/05/03 00:05:44;;;;;;;;;9.20;8.60;;;;;15.33;31.92;99409.28;5071306;28;8862;-78
2023/05/03 00:08:13;;;;;;;;;7.40;7.40;;;;;15.30;32.00;99406.75;5071427;28;8837;-77
2023/05/03 00:10:43;;;;;;;;;9.00;8.00;;;;;15.20;32.07;99409.78;5071012;28;8834;-81
2023/05/03 00:13:12;;;;;;;;;7.00;7.00;;;;;15.22;32.04;99404.44;5071302;28;8841;-80
2023/05/03 00:15:40;;;;;;;;;6.60;6.60;;;;;15.11;32.23;99410.19;5087835;28;9043;-78
2023/05/03 00:18:10;;;;;;;;;4.40;4.00;;;;;15.05;32.21;99408.66;5070024;28;8838;-80
2023/05/03 00:20:39;;;;;;;;;5.00;5.00;;;;;15.10;32.22;99403.19;5087556;28;8904;-78
2023/05/03 00:23:07;;;;;;;;;6.60;5.40;;;;;15.08;32.17;99404.19;5070319;28;8938;-77
2023/05/03 00:25:36;;;;;;;;;6.00;6.00;;;;;15.02;32.24;99402.66;5069594;28;9698;-79
2023/05/03 00:28:07;;;;;;;;;6.00;6.00;;;;;15.01;32.33;99407.06;5054053;28;8849;-78
2023/05/03 00:30:36;;;;;;;;;5.40;5.40;;;;;14.90;32.24;99406.63;5053683;28;8964;-79
2023/05/03 00:33:05;;;;;;;;;5.20;5.20;;;;;14.97;32.37;99407.25;5033869;28;8846;-78
2023/05/03 00:35:34;;;;;;;;;6.60;6.00;;;;;14.89;32.35;99404.09;5018490;28;8859;-78
2023/05/03 00:38:03;;;;;;;;;7.00;7.00;;;;;15.01;32.25;99403.56;5069795;28;8969;-78
2023/05/03 00:40:32;;;;;;;;;5.20;5.20;;;;;15.03;32.19;99407.00;5061234;28;8841;-78
2023/05/03 00:43:01;;;;;;;;;6.40;6.40;;;;;15.12;32.17;99396.03;5048151;28;8845;-78
2023/05/03 00:45:33;;;;;;;;;6.40;6.40;;;;;15.08;32.14;99401.53;5033463;28;8998;-80
2023/05/03 00:48:02;;;;;;;;;6.60;6.60;;;;;15.04;32.22;99406.09;5060903;28;8849;-78
2023/05/03 00:50:31;;;;;;;;;5.20;5.20;;;;;15.05;32.18;99407.78;5070037;28;8861;-78
2023/05/03 00:53:00;;;;;;;;;7.60;6.00;;;;;15.01;32.17;99407.06;5053461;28;8846;-78
2023/05/03 00:55:30;;;;;;;;;6.00;6.00;;;;;15.02;32.39;99405.28;5053196;28;9461;-79
2023/05/03 00:57:59;;;;;;;;;6.20;6.20;;;;;15.00;32.27;99408.00;5087020;28;8878;-80
2023/05/03 01:00:28;;;;;;;;;5.80;5.80;;;;;14.88;32.56;99410.28;5070015;28;8866;-79
2023/05/03 01:02:58;;;;;;;;;6.80;6.80;;;;;14.88;32.39;99407.63;5086207;28;8845;-79
2023/05/03 01:05:31;;;;;;;;;8.00;8.00;;;;;14.80;32.67;99410.59;5070093;28;8904;-78
2023/05/03 01:08:09;;;;;;;;;7.60;7.60;;;;;14.76;32.75;99403.72;5053605;28;9054;-78
2023/05/03 01:10:46;;;;;;;;;6.80;6.80;;;;;14.79;32.86;99411.50;5053622;28;9603;-77
2023/05/03 01:13:24;;;;;;;;;6.60;5.60;;;;;14.69;32.76;99413.63;5019817;28;8881;-78
2023/05/03 01:15:59;;;;;;;;;6.60;6.60;;;;;14.64;32.84;99415.59;5066553;28;8917;-77
2023/05/03 01:18:34;;;;;;;;;7.00;6.00;;;;;14.48;33.15;99418.84;5066506;28;9615;-80
2023/05/03 01:21:04;;;;;;;;;6.20;6.20;;;;;14.56;33.09;99418.53;5067421;28;8957;-80
2023/05/03 01:23:40;;;;;;;;;8.00;8.00;;;;;14.51;33.00;99420.53;5067605;28;8931;-79
2023/05/03 01:26:20;;;;;;;;;6.80;6.60;;;;;14.53;33.09;99421.34;5067459;28;8858;-79
2023/05/03 01:28:49;;;;;;;;;6.00;5.00;;;;;14.48;33.04;99421.50;5067562;28;9706;-78
2023/05/03 01:31:23;;;;;;;;;10.20;9.00;;;;;14.60;32.78;99427.22;5061510;28;8861;-78
2023/05/03 01:34:11;;;;;;;;;4.40;4.00;;;;;14.48;33.02;99426.78;5061998;28;9718;-76
2023/05/03 01:36:44;;;;;;;;;10.40;9.80;;;;;14.50;32.97;99434.66;5017026;28;8866;-78
2023/05/03 01:39:19;;;;;;;;;10.80;9.80;;;;;14.46;33.01;99441.84;5017254;28;8838;-77
2023/05/03 01:41:51;;;;;;;;;8.60;8.60;;;;;14.49;32.90;99432.97;5048516;28;8889;-77
2023/05/03 01:44:22;;;;;;;;;8.60;8.00;;;;;14.40;33.11;99426.22;5068433;28;8861;-77
2023/05/03 01:46:51;;;;;;;;;8.80;7.00;;;;;14.38;33.25;99437.81;5032335;28;8921;-79
2023/05/03 01:49:20;;;;;;;;;7.00;7.00;;;;;14.24;33.45;99443.59;5062880;28;8945;-79
2023/05/03 01:51:48;;;;;;;;;7.60;7.20;;;;;14.21;33.57;99443.72;5061519;28;8858;-78
2023/05/03 01:54:18;;;;;;;;;7.40;7.40;;;;;14.19;33.61;99437.63;5033385;28;8831;-78
2023/05/03 01:56:47;;;;;;;;;5.80;5.80;;;;;14.16;33.58;99440.38;5065443;28;8983;-78
2023/05/03 01:59:17;;;;;;;;;6.80;5.60;;;;;14.01;33.96;99440.03;5048767;28;8896;-78
2023/05/03 02:01:46;;;;;;;;;5.00;4.40;;;;;13.84;34.31;99440.63;5063019;28;8840;-77
2023/05/03 02:04:16;;;;;;;;;4.60;4.60;;;;;13.75;34.28;99438.31;5031102;28;8864;-78
2023/05/03 02:06:44;;;;;;;;;9.00;8.00;;;;;13.65;34.62;99434.25;5028585;28;8924;-78
2023/05/03 02:09:13;;;;;;;;;6.80;5.40;;;;;13.62;34.74;99429.97;5012742;28;8943;-79
2023/05/03 02:11:42;;;;;;;;;5.40;5.40;;;;;13.63;34.83;99428.19;5012090;28;8884;-77
2023/05/03 02:14:12;;;;;;;;;7.60;6.40;;;;;13.64;34.78;99432.56;5028816;28;8862;-80
2023/05/03 02:16:43;;;;;;;;;7.20;6.00;;;;;13.65;34.75;99434.25;5024045;28;8932;-77
2023/05/03 02:19:11;;;;;;;;;4.80;4.80;;;;;13.60;34.78;99434.44;5046838;28;9627;-77
2023/05/03 02:21:40;;;;;;;;;5.40;5.40;;;;;13.46;35.33;99434.06;5065157;28;9006;-78
2023/05/03 02:24:09;;;;;;;;;6.80;6.40;;;;;13.39;35.61;99441.34;5048411;28;8844;-79
2023/05/03 02:26:38;;;;;;;;;7.00;7.00;;;;;13.45;35.43;99434.94;5048303;28;8876;-81
2023/05/03 02:29:07;;;;;;;;;6.60;6.00;;;;;13.43;35.73;99444.72;5060814;28;8858;-78
2023/05/03 02:31:35;;;;;;;;;7.20;7.20;;;;;13.52;35.21;99447.03;5028107;28;8947;-79
2023/05/03 02:34:06;;;;;;;;;6.80;6.00;;;;;13.56;35.54;99451.28;5052302;28;8895;-78
2023/05/03 02:36:35;;;;;;;;;5.60;5.60;;;;;13.55;35.16;99448.72;5066442;28;8935;-78
2023/05/03 02:39:04;;;;;;;;;8.20;6.40;;;;;13.56;35.60;99455.72;5031479;28;8843;-78
2023/05/03 02:41:34;;;;;;;;;5.00;5.00;;;;;13.55;35.43;99460.16;5048352;28;8868;-77
2023/05/03 02:44:03;;;;;;;;;7.00;6.00;;;;;13.55;35.54;99451.38;5065032;28;8937;-78
2023/05/03 02:46:32;;;;;;;;;6.80;6.80;;;;;13.47;35.79;99475.41;5047611;28;8979;-79
2023/05/03 02:49:01;;;;;;;;;5.20;5.20;;;;;13.51;35.62;99466.44;5046172;28;8836;-78
2023/05/03 02:51:31;;;;;;;;;7.40;7.40;;;;;13.52;35.80;99468.16;5016161;28;8882;-78
2023/05/03 02:54:01;;;;;;;;;7.00;7.00;;;;;13.48;35.74;99469.19;5048265;28;8859;-80
2023/05/03 02:56:29;;;;;;;;;7.00;6.60;;;;;13.49;35.94;99468.28;5048300;28;8872;-78
2023/05/03 02:58:58;;;;;;;;;5.80;4.80;;;;;13.45;35.93;99469.28;5047961;28;10049;-79
2023/05/03 03:01:28;;;;;;;;;10.00;7.40;;;;;13.47;36.20;99478.03;5031609;28;8844;-78
2023/05/03 03:03:58;;;;;;;;;8.80;7.80;;;;;13.55;35.99;99470.72;5027677;28;8897;-79
2023/05/03 03:06:27;;;;;;;;;5.00;5.00;;;;;13.55;35.63;99476.00;5044663;28;8886;-79
2023/05/03 03:08:57;;;;;;;;;6.80;5.00;;;;;13.54;35.75;99470.75;5044630;28;8892;-77
2023/05/03 03:11:27;;;;;;;;;8.20;7.20;;;;;13.56;35.77;99471.56;5028744;28;8853;-81
2023/05/03 03:13:56;;;;;;;;;8.00;6.80;;;;;13.60;35.81;99481.97;5046140;28;8852;-79
2023/05/03 03:16:27;;;;;;;;;6.00;5.60;;;;;13.67;35.76;99478.19;5046296;28;8865;-79
2023/05/03 03:18:56;;;;;;;;;7.40;6.40;;;;;13.63;35.86;99483.66;5062404;28;8837;-78
2023/05/03 03:21:27;;;;;;;;;6.00;6.00;;;;;13.61;35.91;99481.06;5045930;28;9595;-78
2023/05/03 03:23:58;;;;;;;;;6.40;5.60;;;;;13.57;35.82;99482.06;5042221;28;8850;-77
2023/05/03 03:26:27;;;;;;;;;6.00;6.00;;;;;13.59;35.98;99485.53;5000118;28;8904;-78
2023/05/03 03:28:56;;;;;;;;;7.20;6.00;;;;;13.62;35.82;99484.53;5066537;28;8866;-77
2023/05/03 03:31:25;;;;;;;;;6.40;6.20;;;;;13.64;35.81;99494.16;5032678;28;8859;-78
2023/05/03 03:33:56;;;;;;;;;6.60;4.80;;;;;13.61;35.83;99490.75;5023282;28;8849;-78
2023/05/03 03:36:29;;;;;;;;;7.80;6.00;;;;;13.52;36.27;99494.56;5044937;28;8865;-77
2023/05/03 03:39:00;;;;;;;;;12.60;12.60;;;;;13.55;36.01;99499.75;5011950;28;8841;-77
2023/05/03 03:41:29;;;;;;;;;8.20;8.20;;;;;13.59;36.51;99500.53;5044547;28;8961;-78
2023/05/03 03:43:58;;;;;;;;;6.00;6.00;;;;;13.61;36.08;99506.59;5011012;28;8964;-77
2023/05/03 03:46:27;;;;;;;;;6.00;6.00;;;;;13.63;36.27;99510.91;5026579;28;8857;-78
2023/05/03 03:48:59;;;;;;;;;7.20;7.20;;;;;13.64;36.10;99507.38;5023009;28;8844;-78
2023/05/03 03:51:30;;;;;;;;;4.60;4.60;;;;;13.64;35.98;99506.50;5044187;28;8888;-78
2023/05/03 03:54:01;;;;;;;;;6.60;6.60;;;;;13.69;36.02;99512.47;5027146;28;8910;-80
2023/05/03 03:56:35;;;;;;;;;6.60;6.60;;;;;13.66;36.17;99507.31;5027089;28;8983;-78
2023/05/03 03:59:04;;;;;;;;;0.40;0.40;;;;;13.74;35.75;99507.06;5027267;28;8849;-78
2023/05/03 04:01:33;;;;;;;;;8.40;8.00;;;;;13.78;36.04;99512.16;5029227;28;8942;-77
2023/05/03 04:04:03;;;;;;;;;11.60;11.60;;;;;13.82;36.07;99518.25;5029843;28;8856;-78
2023/05/03 04:06:32;;;;;;;;;4.60;3.80;;;;;13.78;35.92;99516.59;4997591;28;8918;-80
2023/05/03 04:09:07;;;;;;;;;7.60;6.20;;;;;13.83;35.86;99514.69;5037891;28;8943;-79
2023/05/03 04:11:37;;;;;;;;;6.00;6.00;;;;;13.86;36.09;99514.56;5031770;28;8857;-78
2023/05/03 04:14:07;;;;;;;;;7.60;6.60;;;;;13.85;36.09;99515.50;5033583;28;8868;-79
2023/05/03 04:16:35;;;;;;;;;6.80;6.80;;;;;13.82;36.34;99512.97;5067275;28;8862;-80
2023/05/03 04:19:06;;;;;;;;;5.80;5.80;;;;;13.81;36.43;99521.78;5014587;28;8942;-78
2023/05/03 04:21:38;;;;;;;;;5.40;5.40;;;;;13.72;36.73;99530.88;4999841;28;8992;-79
2023/05/03 04:24:10;;;;;;;;;21.20;21.20;;;;;13.77;36.97;99530.72;5031088;28;8880;-78
2023/05/03 04:26:39;;;;;;;;;7.20;7.20;;;;;13.82;36.75;99529.66;4981708;28;8970;-79
2023/05/03 04:29:15;;;;;;;;;5.80;5.80;;;;;13.89;36.51;99525.91;5047562;28;8971;-80
2023/05/03 04:31:46;;;;;;;;;6.80;6.80;;;;;13.92;36.61;99530.19;4998865;28;8879;-79
2023/05/03 04:34:17;;;;;;;;;5.80;5.80;;;;;13.99;36.88;99536.16;5065770;28;9063;-77
2023/05/03 04:36:49;;;;;;;;;7.60;6.00;;;;;14.01;36.74;99535.16;5001328;28;8878;-78
2023/05/03 04:39:21;;;;;;;;;6.80;6.80;;;;;13.94;37.02;99538.09;5030050;28;8861;-78
2023/05/03 04:41:49;;;;;;;;;6.20;6.20;;;;;13.97;36.97;99536.19;5065012;28;8913;-78
2023/05/03 04:44:19;;;;;;;;;30.25;30.00;;;;;13.97;36.60;99533.56;5067353;28;9684;-78
2023/05/03 04:46:50;;;;;;;;;11.00;10.00;;;;;13.96;37.07;99537.13;5063228;28;8884;-79
2023/05/03 04:49:19;;;;;;;;;10.00;7.40;;;;;13.92;37.31;99535.50;5066989;28;8996;-80
2023/05/03 04:51:48;;;;;;;;;4.20;4.00;;;;;14.00;37.27;99533.47;5067051;28;8935;-77
2023/05/03 04:54:19;;;;;;;;;6.40;6.40;;;;;14.06;37.45;99538.53;5050629;28;8835;-78
2023/05/03 04:56:49;;;;;;;;;7.00;7.00;;;;;14.06;37.44;99540.31;5066987;28;9721;-78
2023/05/03 04:59:19;;;;;;;;;8.40;7.40;;;;;13.93;37.93;99541.66;5067264;28;8969;-78
2023/05/03 05:01:48;;;;;;;;;10.60;9.00;;;;;14.05;37.58;99539.47;5065172;28;8890;-80
2023/05/03 05:04:17;;;;;;;;;7.80;7.00;;;;;14.12;37.56;99537.44;5048434;28;8853;-77
2023/05/03 05:06:51;;;;;;;;;9.00;9.00;;;;;14.17;37.49;99543.44;5058619;28;8867;-81
2023/05/03 05:09:29;;;;;;;;;11.60;11.20;;;;;14.04;37.68;99550.94;5017612;28;8877;-79
2023/05/03 05:12:00;;;;;;;;;10.60;9.20;;;;;13.94;38.01;99544.25;5033463;28;8911;-80
2023/05/03 05:14:35;;;;;;;;;11.80;11.00;;;;;13.96;38.04;99547.72;5048912;28;8960;-78
2023/05/03 05:17:06;;;;;;;;;11.00;11.00;;;;;13.87;38.26;99548.03;5056546;28;9663;-79
2023/05/03 05:19:35;;;;;;;;;13.40;12.40;;;;;13.85;38.50;99539.28;5050772;28;8961;-81
2023/05/03 05:22:04;;;;;;;;;14.00;14.00;;;;;13.88;38.28;99540.03;5032102;28;8978;-81
2023/05/03 05:24:50;;;;;;;;;17.00;15.40;;;;;14.00;38.35;99540.53;5032025;28;8840;-79
2023/05/03 05:27:20;;;;;;;;;17.60;17.00;;;;;13.97;38.56;99538.00;5048968;28;8872;-77
2023/05/03 05:29:49;;;;;;;;;16.40;14.80;;;;;14.05;38.45;99542.09;5066948;28;8955;-78
2023/05/03 05:32:21;;;;;;;;;18.40;18.40;;;;;14.11;38.06;99538.38;5041595;28;8837;-79
2023/05/03 05:34:54;;;;;;;;;22.60;19.00;;;;;14.11;38.23;99541.03;4985373;28;8876;-81
2023/05/03 05:37:26;;;;;;;;;23.60;21.00;;;;;13.98;38.61;99544.97;4986065;28;8856;-80
2023/05/03 05:40:00;;;;;;;;;22.20;21.80;;;;;14.15;38.27;99536.44;4968787;28;8864;-77
2023/05/03 05:42:35;;;;;;;;;24.20;22.00;;;;;14.24;38.03;99537.00;4984889;28;8900;-74
2023/05/03 05:45:06;;;;;;;;;23.00;21.40;;;;;14.26;38.30;99539.56;4969100;28;9028;-82
2023/05/03 05:47:36;;;;;;;;;25.20;22.00;;;;;14.26;38.32;99543.09;4984379;28;8868;-81
2023/05/03 05:50:07;;;;;;;;;27.80;25.60;;;;;14.30;38.24;99538.56;4969124;28;8869;-76
2023/05/03 05:52:51;;;;;;;;;23.00;20.40;;;;;14.39;38.10;99540.84;4922537;28;8879;-76
2023/05/03 05:55:23;;;;;;;;;21.25;19.75;;;;;14.45;37.79;99529.19;4985125;28;8841;-76
2023/05/03 05:57:52;;;;;;;;;24.00;23.00;;;;;14.67;37.55;99535.38;4969460;28;10198;-76
2023/05/03 06:00:30;;;;;;;;;22.60;22.40;;;;;14.68;37.59;99539.78;4953604;28;8970;-77
2023/05/03 06:02:59;;;;;;;;;21.40;19.40;;;;;14.68;37.54;99549.50;4994717;28;8902;-78
2023/05/03 06:05:28;;;;;;;;;23.00;22.00;;;;;14.78;37.38;99552.69;4992427;28;8994;-78
2023/05/03 06:07:57;;;;;;;;;28.75;24.00;;;;;14.88;37.32;99562.00;5008769;28;8880;-78
2023/05/03 06:10:27;;;;;;;;;21.20;20.60;;;;;14.62;37.76;99563.81;5024650;28;8872;-79
2023/05/03 06:12:57;;;;;;;;;23.25;22.00;;;;;14.73;37.80;99560.78;5037732;28;9769;-78
2023/05/03 06:15:28;;;;;;;;;23.60;22.40;;;;;14.81;37.39;99566.66;5045034;28;8885;-77
2023/05/03 06:17:58;;;;;;;;;24.00;23.60;;;;;15.02;37.12;99564.97;5013982;28;8882;-78
2023/05/03 06:20:27;;;;;;;;;24.20;22.80;;;;;15.03;35.98;99561.38;5054293;28;8939;-81
2023/05/03 06:22:57;;;;;;;;;22.20;21.40;;;;;15.10;35.83;99561.16;5039183;28;8861;-77
2023/05/03 06:25:28;;;;;;;;;26.80;23.00;;;;;14.97;35.58;99555.50;5031808;28;8872;-78
2023/05/03 06:27:57;;;;;;;;;15.00;15.00;;;;;14.76;35.47;99570.41;5052349;28;8924;-78
2023/05/03 06:30:30;;;;;;;;;15.80;15.80;;;;;14.67;35.54;99574.22;5066276;28;9656;-78
2023/05/03 06:33:05;;;;;;;;;13.40;12.40;;;;;14.61;35.45;99577.09;5047794;28;8961;-78
2023/05/03 06:35:36;;;;;;;;;12.80;12.60;;;;;14.48;35.70;99582.84;5057386;28;8861;-78
2023/05/03 06:38:04;;;;;;;;;12.00;10.00;;;;;14.36;36.02;99583.28;5044467;28;8858;-77
2023/05/03 06:40:35;;;;;;;;;10.20;10.00;;;;;14.25;35.77;99586.31;5065778;28;8843;-78
2023/05/03 06:43:06;;;;;;;;;11.40;10.00;;;;;14.31;36.03;99590.53;5049656;28;8890;-77
2023/05/03 06:45:39;;;;;;;;;11.40;9.80;;;;;14.41;35.98;99588.41;5016449;28;8862;-80
2023/05/03 06:48:08;;;;;;;;;12.00;10.60;;;;;14.34;36.02;99590.41;5063150;28;8949;-79
2023/05/03 06:50:39;;;;;;;;;13.20;11.20;;;;;14.43;35.88;99594.50;5047003;28;8964;-78
2023/05/03 06:53:08;;;;;;;;;10.40;8.20;;;;;14.38;36.21;99596.47;5064517;28;8860;-78
2023/05/03 06:55:38;;;;;;;;;10.20;9.00;;;;;14.47;36.20;99589.06;5064931;28;8844;-77
2023/05/03 06:58:08;;;;;;;;;10.00;10.00;;;;;14.46;36.22;99589.09;5065020;28;8929;-78
2023/05/03 07:00:39;;;;;;;;;8.40;8.40;;;;;14.41;36.29;99594.59;5014683;28;8888;-79
2023/05/03 07:03:07;;;;;;;;;9.60;9.60;;;;;14.33;36.30;99598.41;5028848;28;8874;-79
2023/05/03 07:05:37;;;;;;;;;10.00;10.00;;;;;14.40;36.26;99591.97;5045739;28;8838;-78
2023/05/03 07:08:06;;;;;;;;;10.00;10.00;;;;;14.34;36.46;99595.72;5044967;28;8900;-78
2023/05/03 07:10:35;;;;;;;;;13.00;11.40;;;;;14.31;36.48;99597.59;5028176;28;8849;-79
2023/05/03 07:13:05;;;;;;;;;9.60;9.60;;;;;14.43;36.47;99610.38;5034199;28;8832;-76
2023/05/03 07:15:34;;;;;;;;;11.00;10.60;;;;;14.35;36.49;99604.50;5064728;28;8944;-78
2023/05/03 07:18:03;;;;;;;;;10.00;9.20;;;;;14.24;36.58;99615.44;5064519;28;8872;-78
2023/05/03 07:20:32;;;;;;;;;10.00;10.00;;;;;14.24;36.40;99612.81;5047595;28;8943;-77
2023/05/03 07:23:01;;;;;;;;;11.00;11.00;;;;;14.08;36.73;99618.63;5046637;28;9736;-77
2023/05/03 07:25:30;;;;;;;;;11.20;11.00;;;;;14.08;36.51;99621.25;5047315;28;8869;-80
2023/05/03 07:27:59;;;;;;;;;10.00;8.00;;;;;13.89;36.14;99622.81;5047160;28;9708;-79
2023/05/03 07:30:29;;;;;;;;;9.20;9.20;;;;;13.87;35.74;99625.50;5047485;28;8861;-77
2023/05/03 07:32:58;;;;;;;;;10.80;10.20;;;;;13.89;35.84;99628.09;5060900;28;8885;-79
2023/05/03 07:35:27;;;;;;;;;8.60;7.80;;;;;13.95;35.64;99630.53;5071175;28;8862;-78
2023/05/03 07:37:56;;;;;;;;;8.00;8.00;;;;;13.76;35.47;99626.75;5069637;28;8873;-79
2023/05/03 07:40:27;;;;;;;;;11.40;10.20;;;;;13.69;35.79;99624.31;5071020;28;8850;-78
2023/05/03 07:42:56;;;;;;;;;7.00;7.00;;;;;13.88;35.55;99631.66;5036861;28;8854;-78
2023/05/03 07:45:25;;;;;;;;;8.00;8.00;;;;;13.91;35.58;99642.13;5070722;28;8943;-79
2023/05/03 07:47:56;;;;;;;;;11.40;10.00;;;;;13.96;35.47;99628.75;5069408;28;8997;-77
2023/05/03 07:50:25;;;;;;;;;8.20;8.20;;;;;14.12;35.34;99626.47;5070652;28;8893;-78
2023/05/03 07:52:55;;;;;;;;;9.60;9.60;;;;;14.13;35.33;99641.38;5069410;28;8880;-78
2023/05/03 07:55:25;;;;;;;;;9.80;7.20;;;;;14.24;35.33;99645.41;5035204;28;8842;-78
2023/05/03 07:57:57;;;;;;;;;11.40;9.80;;;;;14.32;35.21;99649.53;5070616;28;8842;-77
2023/05/03 08:00:27;;;;;;;;;8.20;8.20;;;;;14.28;35.18;99646.16;5069981;28;8912;-77
2023/05/03 08:02:57;;;;;;;;;8.20;8.20;;;;;14.34;35.16;99653.88;5070253;28;9032;-78
2023/05/03 08:05:26;;;;;;;;;7.40;7.40;;;;;14.41;35.11;99655.41;5070393;28;9705;-78
2023/05/03 08:07:55;;;;;;;;;7.60;7.60;;;;;14.43;34.92;99648.28;5051712;28;8842;-77
2023/05/03 08:10:25;;;;;;;;;10.80;9.60;;;;;14.32;35.04;99653.06;5069032;28;8955;-78
2023/05/03 08:12:53;;;;;;;;;11.40;10.00;;;;;14.41;34.83;99655.41;5068634;28;8881;-78
2023/05/03 08:15:22;;;;;;;;;9.60;8.60;;;;;14.50;34.87;99653.34;5069092;28;8823;-78
2023/05/03 08:17:51;;;;;;;;;11.40;10.20;;;;;14.45;34.54;99657.03;5048803;28;8865;-78
2023/05/03 08:20:21;;;;;;;;;12.20;11.60;;;;;14.52;34.97;99656.78;5048805;28;8887;-78
2023/05/03 08:22:51;;;;;;;;;10.80;10.20;;;;;14.66;34.56;99654.53;4998257;28;8881;-77
2023/05/03 08:25:21;;;;;;;;;9.40;9.00;;;;;14.54;34.72;99652.31;5050119;28;8849;-80
2023/05/03 08:27:49;;;;;;;;;11.20;10.80;;;;;14.66;34.55;99659.81;5048776;28;8982;-77
2023/05/03 08:30:20;;;;;;;;;9.00;8.20;;;;;14.58;34.84;99656.56;4998655;28;9591;-78
2023/05/03 08:32:50;;;;;;;;;11.60;11.00;;;;;14.74;34.65;99643.69;5058869;28;8854;-79
2023/05/03 08:35:19;;;;;;;;;10.60;10.60;;;;;14.66;34.53;99659.81;5070039;28;8846;-79
2023/05/03 08:37:49;;;;;;;;;10.20;10.20;;;;;14.67;34.80;99643.00;5069957;28;8889;-77
2023/05/03 08:40:21;;;;;;;;;11.80;10.40;;;;;14.87;34.76;99647.63;5069513;28;8865;-78
2023/05/03 08:42:50;;;;;;;;;10.20;9.20;;;;;15.02;34.66;99652.34;5068259;28;8878;-77
2023/05/03 08:45:19;;;;;;;;;10.40;9.40;;;;;14.85;34.33;99650.31;5068737;28;8851;-78
2023/05/03 08:47:54;;;;;;;;;12.00;10.00;;;;;14.70;35.01;99645.56;5069815;28;8850;-78
2023/05/03 08:50:24;;;;;;;;;8.60;7.80;;;;;15.01;34.56;99649.75;5069901;28;8896;-77
2023/05/03 08:52:55;;;;;;;;;9.00;9.00;;;;;14.96;34.45;99649.03;5068222;28;8846;-77
2023/05/03 08:55:24;;;;;;;;;9.60;9.60;;;;;15.07;34.11;99641.56;5067854;28;8854;-77
2023/05/03 08:57:52;;;;;;;;;10.40;10.40;;;;;15.19;33.83;99642.91;5067774;28;8858;-77
2023/05/03 09:00:28;;;;;;;;;10.00;10.00;;;;;15.27;33.77;99647.91;5050631;28;8862;-77
2023/05/03 09:02:59;;;;;;;;;10.60;10.60;;;;;15.20;33.54;99639.31;5066469;28;8944;-78
2023/05/03 09:05:33;;;;;;;;;9.60;8.40;;;;;15.30;33.51;99645.09;5066586;28;8856;-77
2023/05/03 09:08:06;;;;;;;;;9.20;9.00;;;;;15.37;33.15;99641.31;5066342;28;9622;-78
2023/05/03 09:10:38;;;;;;;;;9.40;9.40;;;;;15.41;32.87;99649.06;5066473;28;8864;-78
2023/05/03 09:13:07;;;;;;;;;9.40;9.40;;;;;15.33;33.14;99645.00;5033285;28;8860;-76
2023/05/03 09:15:37;;;;;;;;;10.00;10.00;;;;;15.33;33.15;99643.22;5066427;28;8852;-77
2023/05/03 09:18:14;;;;;;;;;10.60;9.60;;;;;15.30;32.96;99643.31;5066215;28;8864;-80
2023/05/03 09:20:50;;;;;;;;;12.80;11.20;;;;;15.17;33.48;99635.00;5049370;28;8851;-78
2023/05/03 09:23:31;;;;;;;;;10.40;10.40;;;;;15.13;34.00;99654.59;5032752;28;8860;-77
2023/05/03 09:26:00;;;;;;;;;10.00;10.00;;;;;15.12;34.06;99649.34;5049557;28;8860;-78
2023/05/03 09:28:29;;;;;;;;;10.40;9.80;;;;;15.10;33.85;99649.41;5066107;28;9738;-78
2023/05/03 09:31:06;;;;;;;;;10.00;10.00;;;;;15.15;34.15;99650.09;5065816;28;9603;-78
2023/05/03 09:33:35;;;;;;;;;10.40;9.80;;;;;15.33;33.91;99652.94;5066315;28;8867;-77
2023/05/03 09:36:05;;;;;;;;;10.60;10.60;;;;;15.45;33.89;99660.41;5065733;28;8848;-79
2023/05/03 09:38:36;;;;;;;;;10.40;10.40;;;;;15.53;33.37;99652.13;5049147;28;8977;-77
2023/05/03 09:41:05;;;;;;;;;10.80;10.80;;;;;15.46;33.70;99656.84;5046606;28;8903;-77
2023/05/03 09:43:35;;;;;;;;;10.00;9.60;;;;;15.44;33.64;99646.28;5048599;28;8856;-79
2023/05/03 09:46:09;;;;;;;;;10.80;10.00;;;;;15.52;33.83;99655.72;5047290;28;8845;-77
2023/05/03 09:48:39;;;;;;;;;14.20;12.40;;;;;15.50;34.11;99647.84;5029677;28;8898;-79
2023/05/03 09:51:09;;;;;;;;;11.60;11.60;;;;;15.52;34.20;99643.34;5065453;28;8981;-78
2023/05/03 09:53:41;;;;;;;;;12.00;11.20;;;;;15.70;34.10;99643.56;5048968;28;9766;-76
2023/05/03 09:56:12;;;;;;;;;12.40;12.40;;;;;15.51;34.32;99643.41;5048691;28;8839;-78
2023/05/03 09:58:42;;;;;;;;;10.80;10.80;;;;;15.52;34.19;99640.69;5065564;28;10082;-79
2023/05/03 10:01:12;;;;;;;;;12.80;11.60;;;;;15.60;33.81;99641.31;5065417;28;9610;-77
2023/05/03 10:03:43;;;;;;;;;12.40;12.20;;;;;15.64;33.42;99636.72;5048839;28;8989;-79
2023/05/03 10:06:22;;;;;;;;;14.20;13.00;;;;;15.71;33.23;99634.69;5065711;28;8840;-78
2023/05/03 10:09:01;;;;;;;;;12.40;12.40;;;;;15.61;33.53;99639.50;5065466;28;8852;-76
2023/05/03 10:11:29;;;;;;;;;12.00;11.40;;;;;15.51;33.58;99638.97;5064718;28;10137;-77
2023/05/03 10:13:59;;;;;;;;;12.60;12.60;;;;;15.44;33.78;99632.19;5000070;28;9006;-76
2023/05/03 10:16:33;;;;;;;;;12.20;11.40;;;;;15.42;34.05;99631.41;5011620;28;8857;-78
2023/05/03 10:19:10;;;;;;;;;12.20;11.40;;;;;15.27;34.00;99634.66;5068156;28;8841;-78
2023/05/03 10:21:54;;;;;;;;;12.20;11.20;;;;;15.37;34.38;99634.22;5075724;28;9004;-78
2023/05/03 10:24:24;;;;;;;;;12.80;11.80;;;;;15.02;34.56;99632.94;5028001;28;8845;-79
2023/05/03 10:26:56;;;;;;;;;13.60;13.00;;;;;15.10;34.81;99625.56;5028535;28;8900;-78
2023/05/03 10:29:51;;;;;;;;;11.60;11.00;;;;;14.95;35.25;99624.38;5045187;28;8833;-79
2023/05/03 10:32:34;;;;;;;;;14.40;14.00;;;;;14.84;35.89;99621.25;5044866;28;8881;-78
2023/05/03 10:35:08;;;;;;;;;13.20;11.60;;;;;14.73;35.86;99626.94;5045806;28;8893;-78
2023/05/03 10:37:40;;;;;;;;;12.00;12.00;;;;;14.84;35.93;99616.81;5028977;28;8825;-77
2023/05/03 10:40:13;;;;;;;;;13.20;13.20;;;;;14.81;36.24;99616.94;5045465;28;8841;-78
2023/05/03 10:42:45;;;;;;;;;15.20;14.00;;;;;14.71;36.33;99623.47;5045467;28;8887;-78
2023/05/03 10:45:25;;;;;;;;;11.20;11.20;;;;;14.53;36.01;99613.53;5028621;28;8864;-78
2023/05/03 10:48:19;;;;;;;;;12.40;11.80;;;;;14.21;36.26;99620.84;5044811;28;8853;-78
2023/05/03 10:50:50;;;;;;;;;11.40;11.40;;;;;14.31;36.17;99624.91;5045459;28;8849;-78
2023/05/03 10:53:38;;;;;;;;;12.40;11.80;;;;;14.28;36.09;99625.88;5045260;28;8888;-78
2023/05/03 10:56:10;;;;;;;;;9.20;8.40;;;;;14.35;35.80;99630.94;5046590;28;8873;-78
2023/05/03 10:58:46;;;;;;;;;12.00;12.00;;;;;14.48;35.79;99630.44;5012087;28;8923;-77
2023/05/03 11:01:18;;;;;;;;;10.60;10.60;;;;;14.59;35.26;99626.56;5046141;28;8868;-76
2023/05/03 11:03:52;;;;;;;;;12.40;12.20;;;;;14.42;35.79;99629.81;5046197;28;8837;-78
2023/05/03 11:06:28;;;;;;;;;12.00;10.60;;;;;14.47;35.62;99631.38;4997752;28;8957;-78
2023/05/03 11:08:57;;;;;;;;;15.20;12.60;;;;;14.49;35.49;99628.69;5017142;28;8834;-77
2023/05/03 11:11:27;;;;;;;;;13.80;13.00;;;;;14.17;36.11;99624.50;5057645;28;8982;-78
2023/05/03 11:13:56;;;;;;;;;11.80;10.00;;;;;14.22;36.18;99626.06;5050288;28;8856;-79
2023/05/03 11:16:26;;;;;;;;;11.00;10.00;;;;;14.31;36.12;99621.41;5051743;28;8877;-78
2023/05/03 11:18:55;;;;;;;;;12.20;11.80;;;;;14.47;36.15;99630.53;5050252;28;8871;-77
2023/05/03 11:21:24;;;;;;;;;14.00;14.00;;;;;14.45;36.06;99619.09;5049991;28;8841;-77
2023/05/03 11:23:53;;;;;;;;;16.00;12.40;;;;;14.48;35.80;99624.28;5033497;28;9611;-77
2023/05/03 11:26:24;;;;;;;;;13.40;12.00;;;;;14.54;35.63;99616.13;5080082;28;8845;-78
2023/05/03 11:28:55;;;;;;;;;11.00;9.80;;;;;14.66;35.32;99622.78;5071336;28;8877;-78
2023/05/03 11:31:24;;;;;;;;;13.60;11.80;;;;;14.74;35.30;99622.53;5070879;28;8985;-76
2023/05/03 11:33:54;;;;;;;;;10.60;10.00;;;;;14.79;35.15;99610.84;5070600;28;9604;-78
2023/05/03 11:36:22;;;;;;;;;13.20;10.40;;;;;14.84;34.93;99610.66;5068007;28;8949;-78
2023/05/03 11:38:51;;;;;;;;;13.00;12.00;;;;;14.83;34.58;99612.47;5051315;28;8852;-77
2023/05/03 11:41:20;;;;;;;;;13.00;12.80;;;;;14.87;35.02;99618.50;5035100;28;8856;-75
2023/05/03 11:43:50;;;;;;;;;10.20;10.20;;;;;14.99;34.81;99607.44;5068001;28;8926;-77
2023/05/03 11:46:39;;;;;;;;;11.00;11.00;;;;;15.02;34.85;99598.53;5067884;28;8866;-79
2023/05/03 11:49:09;;;;;;;;;10.80;10.80;;;;;14.97;34.98;99608.44;5034846;28;8828;-78
2023/05/03 11:51:38;;;;;;;;;12.40;12.00;;;;;15.22;34.54;99609.19;5050923;28;8837;-79